Time,TemperatureF,DewpointF,PressureIn,WindDirection,WindDirectionDegrees,WindSpeedMPH,WindSpeedGustMPH,Humidity,HourlyPrecipIn,Conditions,Clouds,dailyrainin,SoftwareType,DateUTC
2013-11-05 00:01:00,47.1,27.9,30.37,WNW,291,0.0,0.0,47,0.00,,,0.00,VWS V14.01,2013-11-05 05:01:00,
2013-11-05 00:02:00,47.0,27.8,30.37,WNW,291,2.0,0.0,47,0.00,,,0.00,VWS V14.01,2013-11-05 05:02:00,
2013-11-05 00:03:00,47.0,27.3,30.37,WNW,287,1.0,0.0,46,0.00,,,0.00,VWS V14.01,2013-11-05 05:03:00,
2013-11-05 00:04:00,47.0,27.3,30.37,WNW,287,0.0,0.0,46,0.00,,,0.00,VWS V14.01,2013-11-05 05:04:00,
2013-11-05 00:09:00,46.8,27.6,30.37,WNW,288,0.0,0.0,47,0.00,,,0.00,VWS V14.01,2013-11-05 05:09:00,
2013-11-05 00:14:00,46.8,28.7,30.34,WNW,288,0.0,0.0,49,0.00,,,0.00,VWS V14.01,2013-11-05 05:14:00,
2013-11-05 00:20:00,46.7,27.6,30.34,NNW,331,2.0,0.0,47,0.00,,,0.00,VWS V14.01,2013-11-05 05:20:00,
2013-11-05 00:21:00,46.7,27.6,30.34,SW,219,0.0,0.0,47,0.00,,,0.00,VWS V14.01,2013-11-05 05:21:00,
2013-11-05 00:26:00,46.7,27.6,30.34,West,259,0.0,0.0,47,0.00,,,0.00,VWS V14.01,2013-11-05 05:26:00,
2013-11-05 00:31:00,46.7,28.1,30.35,West,259,0.0,0.0,48,0.00,,,0.00,VWS V14.01,2013-11-05 05:31:00,
2013-11-05 00:36:00,46.5,28.9,30.35,West,259,0.0,0.0,50,0.00,,,0.00,VWS V14.01,2013-11-05 05:36:00,
2013-11-05 00:41:00,46.2,28.6,30.35,West,259,0.0,0.0,50,0.00,,,0.00,VWS V14.01,2013-11-05 05:41:00,
2013-11-05 00:46:00,46.0,28.4,30.35,West,259,2.0,0.0,50,0.00,,,0.00,VWS V14.01,2013-11-05 05:46:00,
2013-11-05 00:51:00,46.1,29.0,30.35,WNW,285,0.0,0.0,51,0.00,,,0.00,VWS V14.01,2013-11-05 05:51:00,
2013-11-05 00:56:00,45.7,29.6,30.35,WNW,285,0.0,0.0,53,0.00,,,0.00,VWS V14.01,2013-11-05 05:56:00,
2013-11-05 01:01:00,45.2,30.0,30.36,WNW,285,0.0,0.0,55,0.00,,,0.00,VWS V14.01,2013-11-05 06:01:00,
2013-11-05 01:18:00,44.5,30.2,30.35,WNW,285,0.0,0.0,57,0.00,,,0.00,VWS V14.01,2013-11-05 06:18:00,
2013-11-05 01:54:00,44.2,30.4,30.35,West,281,0.0,0.0,58,0.00,,,0.00,VWS V14.01,2013-11-05 06:54:00,
2013-11-05 01:59:00,43.9,29.7,30.35,West,281,0.0,0.0,57,0.00,,,0.00,VWS V14.01,2013-11-05 06:59:00,
2013-11-05 02:04:00,43.6,29.8,30.35,West,281,0.0,0.0,58,0.00,,,0.00,VWS V14.01,2013-11-05 07:04:00,
2013-11-05 02:09:00,43.5,28.9,30.35,West,281,0.0,0.0,56,0.00,,,0.00,VWS V14.01,2013-11-05 07:09:00,
2013-11-05 02:14:00,43.3,29.5,30.36,West,281,0.0,0.0,58,0.00,,,0.00,VWS V14.01,2013-11-05 07:14:00,
2013-11-05 02:20:00,43.3,30.0,30.36,West,281,0.0,0.0,59,0.00,,,0.00,VWS V14.01,2013-11-05 07:20:00,
2013-11-05 02:25:00,43.2,29.0,30.36,West,281,0.0,0.0,57,0.00,,,0.00,VWS V14.01,2013-11-05 07:25:00,
2013-11-05 02:30:00,43.1,29.8,30.36,West,281,0.0,0.0,59,0.00,,,0.00,VWS V14.01,2013-11-05 07:30:00,
2013-11-05 02:35:00,42.9,29.6,30.36,West,281,0.0,0.0,59,0.00,,,0.00,VWS V14.01,2013-11-05 07:35:00,
2013-11-05 02:40:00,42.8,29.9,30.36,West,281,0.0,0.0,60,0.00,,,0.00,VWS V14.01,2013-11-05 07:40:00,
2013-11-05 02:45:00,42.6,29.7,30.37,West,281,0.0,0.0,60,0.00,,,0.00,VWS V14.01,2013-11-05 07:45:00,
2013-11-05 02:50:00,42.6,28.9,30.37,West,281,0.0,0.0,58,0.00,,,0.00,VWS V14.01,2013-11-05 07:50:00,
2013-11-05 02:55:00,42.6,29.7,30.37,West,281,0.0,0.0,60,0.00,,,0.00,VWS V14.01,2013-11-05 07:55:00,
2013-11-05 03:00:00,42.6,30.1,30.37,West,281,0.0,0.0,61,0.00,,,0.00,VWS V14.01,2013-11-05 08:00:00,
2013-11-05 03:05:00,42.6,30.1,30.37,West,281,0.0,0.0,61,0.00,,,0.00,VWS V14.01,2013-11-05 08:05:00,
2013-11-05 03:10:00,42.6,29.7,30.37,West,281,0.0,0.0,60,0.00,,,0.00,VWS V14.01,2013-11-05 08:10:00,
2013-11-05 03:15:00,42.6,30.1,30.37,West,281,0.0,0.0,61,0.00,,,0.00,VWS V14.01,2013-11-05 08:15:00,
2013-11-05 03:20:00,42.6,30.5,30.37,West,281,0.0,0.0,62,0.00,,,0.00,VWS V14.01,2013-11-05 08:20:00,
2013-11-05 03:25:00,42.8,30.7,30.37,West,281,0.0,0.0,62,0.00,,,0.00,VWS V14.01,2013-11-05 08:25:00,
2013-11-05 03:30:00,42.8,30.3,30.37,North,5,1.0,0.0,61,0.00,,,0.00,VWS V14.01,2013-11-05 08:30:00,
2013-11-05 03:35:00,43.1,29.3,30.37,WNW,297,0.0,0.0,58,0.00,,,0.00,VWS V14.01,2013-11-05 08:35:00,
2013-11-05 03:40:00,43.3,29.1,30.37,NE,54,0.0,0.0,57,0.00,,,0.00,VWS V14.01,2013-11-05 08:40:00,
2013-11-05 03:46:00,43.3,29.1,30.37,NNE,17,0.0,0.0,57,0.00,,,0.00,VWS V14.01,2013-11-05 08:46:00,
2013-11-05 03:51:00,43.5,29.3,30.37,North,5,0.0,0.0,57,0.00,,,0.00,VWS V14.01,2013-11-05 08:51:00,
2013-11-05 03:56:00,43.5,29.3,30.37,North,5,0.0,0.0,57,0.00,,,0.00,VWS V14.01,2013-11-05 08:56:00,
2013-11-05 04:01:00,43.3,29.1,30.37,North,5,0.0,0.0,57,0.00,,,0.00,VWS V14.01,2013-11-05 09:01:00,
2013-11-05 04:06:00,43.1,29.3,30.37,North,5,0.0,0.0,58,0.00,,,0.00,VWS V14.01,2013-11-05 09:06:00,
2013-11-05 04:11:00,43.1,29.3,30.37,North,5,0.0,0.0,58,0.00,,,0.00,VWS V14.01,2013-11-05 09:11:00,
2013-11-05 04:16:00,42.9,29.2,30.38,North,5,0.0,0.0,58,0.00,,,0.00,VWS V14.01,2013-11-05 09:16:00,
2013-11-05 04:21:00,42.9,30.0,30.38,North,5,0.0,0.0,60,0.00,,,0.00,VWS V14.01,2013-11-05 09:21:00,
2013-11-05 04:26:00,42.8,29.5,30.38,NNE,22,0.0,0.0,59,0.00,,,0.00,VWS V14.01,2013-11-05 09:26:00,
2013-11-05 04:31:00,42.9,29.6,30.37,NNE,21,0.0,0.0,59,0.00,,,0.00,VWS V14.01,2013-11-05 09:31:00,
2013-11-05 04:36:00,42.9,30.0,30.37,NNE,21,0.0,0.0,60,0.00,,,0.00,VWS V14.01,2013-11-05 09:36:00,
2013-11-05 04:41:00,43.1,29.8,30.37,NNE,21,0.0,0.0,59,0.00,,,0.00,VWS V14.01,2013-11-05 09:41:00,
2013-11-05 04:46:00,43.1,30.2,30.37,NNE,21,0.0,0.0,60,0.00,,,0.00,VWS V14.01,2013-11-05 09:46:00,
2013-11-05 04:51:00,42.9,29.6,30.37,SW,233,3.0,0.0,59,0.00,,,0.00,VWS V14.01,2013-11-05 09:51:00,
2013-11-05 04:56:00,42.9,30.0,30.37,SW,233,0.0,0.0,60,0.00,,,0.00,VWS V14.01,2013-11-05 09:56:00,
2013-11-05 05:01:00,42.8,29.5,30.38,NNW,332,0.0,0.0,59,0.00,,,0.00,VWS V14.01,2013-11-05 10:01:00,
2013-11-05 05:06:00,42.6,29.7,30.38,SW,236,0.0,0.0,60,0.00,,,0.00,VWS V14.01,2013-11-05 10:06:00,
2013-11-05 05:11:00,42.5,29.6,30.38,West,281,0.0,0.0,60,0.00,,,0.00,VWS V14.01,2013-11-05 10:11:00,
2013-11-05 05:16:00,42.5,30.0,30.40,WSW,254,0.0,0.0,61,0.00,,,0.00,VWS V14.01,2013-11-05 10:16:00,
2013-11-05 05:21:00,42.3,29.8,30.40,WSW,254,0.0,0.0,61,0.00,,,0.00,VWS V14.01,2013-11-05 10:21:00,
2013-11-05 05:26:00,42.2,29.7,30.40,WSW,254,1.0,0.0,61,0.00,,,0.00,VWS V14.01,2013-11-05 10:26:00,
2013-11-05 05:32:00,42.2,30.1,30.40,WSW,254,0.0,0.0,62,0.00,,,0.00,VWS V14.01,2013-11-05 10:32:00,
2013-11-05 05:37:00,42.1,30.0,30.40,WSW,254,0.0,0.0,62,0.00,,,0.00,VWS V14.01,2013-11-05 10:37:00,
2013-11-05 05:42:00,41.9,29.9,30.40,WSW,254,0.0,0.0,62,0.00,,,0.00,VWS V14.01,2013-11-05 10:42:00,
2013-11-05 05:47:00,41.9,29.9,30.40,WSW,254,0.0,0.0,62,0.00,,,0.00,VWS V14.01,2013-11-05 10:47:00,
2013-11-05 05:52:00,41.9,29.9,30.40,WSW,254,0.0,0.0,62,0.00,,,0.00,VWS V14.01,2013-11-05 10:52:00,
2013-11-05 05:57:00,42.1,29.6,30.40,NNE,17,0.0,0.0,61,0.00,,,0.00,VWS V14.01,2013-11-05 10:57:00,
2013-11-05 06:02:00,42.2,29.7,30.41,NNE,17,0.0,0.0,61,0.00,,,0.00,VWS V14.01,2013-11-05 11:02:00,
2013-11-05 06:07:00,42.3,29.8,30.41,NNE,17,0.0,0.0,61,0.00,,,0.00,VWS V14.01,2013-11-05 11:07:00,
2013-11-05 06:12:00,42.3,29.8,30.41,NNE,17,0.0,0.0,61,0.00,,,0.00,VWS V14.01,2013-11-05 11:12:00,
2013-11-05 06:17:00,42.3,30.2,30.43,NNE,17,0.0,0.0,62,0.00,,,0.00,VWS V14.01,2013-11-05 11:17:00,
2013-11-05 06:22:00,42.2,30.9,30.43,NNE,17,0.0,0.0,64,0.00,,,0.00,VWS V14.01,2013-11-05 11:22:00,
2013-11-05 06:27:00,42.1,30.0,30.43,NNE,17,0.0,0.0,62,0.00,,,0.00,VWS V14.01,2013-11-05 11:27:00,
2013-11-05 06:32:00,41.9,29.5,30.42,NNE,17,0.0,0.0,61,0.00,,,0.00,VWS V14.01,2013-11-05 11:32:00,
2013-11-05 06:37:00,41.9,29.0,30.42,NNE,17,0.0,0.0,60,0.00,,,0.00,VWS V14.01,2013-11-05 11:37:00,
2013-11-05 06:42:00,41.9,29.5,30.42,NNE,17,0.0,0.0,61,0.00,,,0.00,VWS V14.01,2013-11-05 11:42:00,
2013-11-05 06:47:00,41.9,29.0,30.42,NNE,17,0.0,0.0,60,0.00,,,0.00,VWS V14.01,2013-11-05 11:47:00,
2013-11-05 06:52:00,42.1,29.2,30.42,WNW,296,0.0,0.0,60,0.00,,,0.00,VWS V14.01,2013-11-05 11:52:00,
2013-11-05 06:57:00,42.1,29.2,30.42,WNW,296,1.0,0.0,60,0.00,,,0.00,VWS V14.01,2013-11-05 11:57:00,
2013-11-05 07:02:00,42.2,29.3,30.42,West,279,0.0,0.0,60,0.00,,,0.00,VWS V14.01,2013-11-05 12:02:00,
2013-11-05 07:07:00,42.2,28.9,30.42,West,279,0.0,0.0,59,0.00,,,0.00,VWS V14.01,2013-11-05 12:07:00,
2013-11-05 07:12:00,42.2,29.3,30.42,West,279,0.0,0.0,60,0.00,,,0.00,VWS V14.01,2013-11-05 12:12:00,
2013-11-05 07:17:00,42.2,28.9,30.42,West,279,0.0,0.0,59,0.00,,,0.00,VWS V14.01,2013-11-05 12:17:00,
2013-11-05 07:23:00,42.3,29.0,30.42,West,277,0.0,0.0,59,0.00,,,0.00,VWS V14.01,2013-11-05 12:23:00,
2013-11-05 07:28:00,42.3,29.0,30.42,West,279,1.0,0.0,59,0.00,,,0.00,VWS V14.01,2013-11-05 12:28:00,
2013-11-05 07:33:00,42.3,29.0,30.42,NNE,19,0.0,0.0,59,0.00,,,0.00,VWS V14.01,2013-11-05 12:33:00,
2013-11-05 07:38:00,42.2,29.3,30.42,NNE,19,0.0,0.0,60,0.00,,,0.00,VWS V14.01,2013-11-05 12:38:00,
2013-11-05 07:43:00,42.2,29.7,30.42,West,265,0.0,0.0,61,0.00,,,0.00,VWS V14.01,2013-11-05 12:43:00,
2013-11-05 07:48:00,42.1,29.2,30.42,SW,225,0.0,0.0,60,0.00,,,0.00,VWS V14.01,2013-11-05 12:48:00,
2013-11-05 07:53:00,42.1,29.2,30.42,WSW,248,1.0,0.0,60,0.00,,,0.00,VWS V14.01,2013-11-05 12:53:00,
2013-11-05 07:58:00,42.2,28.9,30.42,West,265,1.0,0.0,59,0.00,,,0.00,VWS V14.01,2013-11-05 12:58:00,
2013-11-05 08:03:00,42.2,28.9,30.42,SSW,207,0.0,0.0,59,0.00,,,0.00,VWS V14.01,2013-11-05 13:03:00,
2013-11-05 08:08:00,42.2,29.3,30.42,SSW,202,0.0,0.0,60,0.00,,,0.00,VWS V14.01,2013-11-05 13:08:00,
2013-11-05 08:13:00,42.3,29.0,30.42,WNW,295,0.0,0.0,59,0.00,,,0.00,VWS V14.01,2013-11-05 13:13:00,
2013-11-05 08:18:00,42.3,29.0,30.42,SW,232,0.0,0.0,59,0.00,,,0.00,VWS V14.01,2013-11-05 13:18:00,
2013-11-05 08:23:00,42.5,29.2,30.42,NE,50,2.0,0.0,59,0.00,,,0.00,VWS V14.01,2013-11-05 13:23:00,
2013-11-05 08:28:00,42.6,29.3,30.42,NNW,338,1.0,0.0,59,0.00,,,0.00,VWS V14.01,2013-11-05 13:28:00,
2013-11-05 08:33:00,42.8,29.1,30.42,WSW,246,0.0,0.0,58,0.00,,,0.00,VWS V14.01,2013-11-05 13:33:00,
2013-11-05 08:38:00,42.8,29.1,30.42,WSW,246,0.0,0.0,58,0.00,,,0.00,VWS V14.01,2013-11-05 13:38:00,
2013-11-05 08:44:00,42.9,29.2,30.42,WSW,258,0.0,0.0,58,0.00,,,0.00,VWS V14.01,2013-11-05 13:44:00,
2013-11-05 08:49:00,42.9,29.6,30.42,West,269,1.0,0.0,59,0.00,,,0.00,VWS V14.01,2013-11-05 13:49:00,
2013-11-05 08:54:00,42.9,29.6,30.42,WSW,251,0.0,0.0,59,0.00,,,0.00,VWS V14.01,2013-11-05 13:54:00,
2013-11-05 08:59:00,43.2,29.4,30.42,SW,219,2.0,0.0,58,0.00,,,0.00,VWS V14.01,2013-11-05 13:59:00,
2013-11-05 09:04:00,43.3,29.5,30.42,SW,222,2.0,0.0,58,0.00,,,0.00,VWS V14.01,2013-11-05 14:04:00,
2013-11-05 09:09:00,43.5,29.3,30.42,NNE,17,2.0,0.0,57,0.00,,,0.00,VWS V14.01,2013-11-05 14:09:00,
2013-11-05 09:14:00,43.8,29.6,30.41,West,280,3.0,0.0,57,0.00,,,0.00,VWS V14.01,2013-11-05 14:14:00,
2013-11-05 09:19:00,44.2,30.0,30.41,SW,236,1.0,0.0,57,0.00,,,0.00,VWS V14.01,2013-11-05 14:19:00,
2013-11-05 09:24:00,44.5,30.2,30.41,West,280,1.0,0.0,57,0.00,,,0.00,VWS V14.01,2013-11-05 14:24:00,
2013-11-05 09:29:00,45.1,29.9,30.42,West,280,0.0,0.0,55,0.00,,,0.00,VWS V14.01,2013-11-05 14:29:00,
2013-11-05 09:34:00,45.4,30.2,30.42,West,280,0.0,0.0,55,0.00,,,0.00,VWS V14.01,2013-11-05 14:34:00,
2013-11-05 09:40:00,46.0,30.3,30.42,West,269,1.0,0.0,54,0.00,,,0.00,VWS V14.01,2013-11-05 14:40:00,
2013-11-05 09:45:00,46.2,29.6,30.42,WNW,290,1.0,0.0,52,0.00,,,0.00,VWS V14.01,2013-11-05 14:45:00,
2013-11-05 09:50:00,46.2,30.0,30.42,NNW,332,2.0,0.0,53,0.00,,,0.00,VWS V14.01,2013-11-05 14:50:00,
2013-11-05 09:55:00,46.5,29.8,30.42,NNW,338,0.0,0.0,52,0.00,,,0.00,VWS V14.01,2013-11-05 14:55:00,
2013-11-05 10:00:00,46.8,30.1,30.41,WNW,295,0.0,0.0,52,0.00,,,0.00,VWS V14.01,2013-11-05 15:00:00,
2013-11-05 10:05:00,47.1,29.9,30.41,NNE,18,1.0,0.0,51,0.00,,,0.00,VWS V14.01,2013-11-05 15:05:00,
2013-11-05 10:10:00,47.4,29.7,30.41,NNE,15,0.0,0.0,50,0.00,,,0.00,VWS V14.01,2013-11-05 15:10:00,
2013-11-05 10:15:00,47.7,30.0,30.41,NNW,343,0.0,0.0,50,0.00,,,0.00,VWS V14.01,2013-11-05 15:15:00,
2013-11-05 10:20:00,47.7,30.0,30.41,SSW,209,0.0,0.0,50,0.00,,,0.00,VWS V14.01,2013-11-05 15:20:00,
2013-11-05 10:25:00,47.9,30.2,30.41,West,278,0.0,0.0,50,0.00,,,0.00,VWS V14.01,2013-11-05 15:25:00,
2013-11-05 10:30:00,48.0,30.3,30.41,NE,42,1.0,0.0,50,0.00,,,0.00,VWS V14.01,2013-11-05 15:30:00,
2013-11-05 10:35:00,48.2,30.5,30.41,NW,323,0.0,0.0,50,0.00,,,0.00,VWS V14.01,2013-11-05 15:35:00,
2013-11-05 10:40:00,48.5,30.7,30.41,West,261,0.0,0.0,50,0.00,,,0.00,VWS V14.01,2013-11-05 15:40:00,
2013-11-05 10:45:00,48.9,31.1,30.40,North,360,2.0,0.0,50,0.00,,,0.00,VWS V14.01,2013-11-05 15:45:00,
2013-11-05 10:50:00,49.4,31.1,30.40,NNW,338,0.0,0.0,49,0.00,,,0.00,VWS V14.01,2013-11-05 15:50:00,
2013-11-05 10:55:00,49.9,30.0,30.40,NW,318,2.0,0.0,46,0.00,,,0.00,VWS V14.01,2013-11-05 15:55:00,
2013-11-05 11:00:00,50.4,29.9,30.40,NW,325,0.0,0.0,45,0.00,,,0.00,VWS V14.01,2013-11-05 16:00:00,
2013-11-05 11:05:00,51.0,29.3,30.40,NNE,22,0.0,0.0,43,0.00,,,0.00,VWS V14.01,2013-11-05 16:05:00,
2013-11-05 11:10:00,51.3,29.0,30.40,NNW,329,1.0,0.0,42,0.00,,,0.00,VWS V14.01,2013-11-05 16:10:00,
2013-11-05 11:15:00,51.9,30.1,30.39,North,11,2.0,0.0,43,0.00,,,0.00,VWS V14.01,2013-11-05 16:15:00,
2013-11-05 11:21:00,52.3,29.3,30.39,West,273,1.0,0.0,41,0.00,,,0.00,VWS V14.01,2013-11-05 16:21:00,
2013-11-05 11:26:00,52.3,28.1,30.39,East,94,1.0,0.0,39,0.00,,,0.00,VWS V14.01,2013-11-05 16:26:00,
2013-11-05 11:31:00,52.5,28.9,30.37,NE,38,3.0,0.0,40,0.00,,,0.00,VWS V14.01,2013-11-05 16:31:00,
2013-11-05 11:36:00,52.8,27.3,30.37,NNW,336,3.0,0.0,37,0.00,,,0.00,VWS V14.01,2013-11-05 16:36:00,
2013-11-05 11:41:00,53.1,27.5,30.37,NW,306,2.0,0.0,37,0.00,,,0.00,VWS V14.01,2013-11-05 16:41:00,
2013-11-05 11:46:00,53.5,27.9,30.37,NE,51,0.0,0.0,37,0.00,,,0.00,VWS V14.01,2013-11-05 16:46:00,
2013-11-05 11:51:00,54.1,27.1,30.37,NNW,327,2.0,0.0,35,0.00,,,0.00,VWS V14.01,2013-11-05 16:51:00,
2013-11-05 11:56:00,54.7,26.9,30.37,NNW,329,0.0,0.0,34,0.00,,,0.00,VWS V14.01,2013-11-05 16:56:00,
2013-11-05 12:01:00,55.0,27.9,30.37,NW,311,0.0,0.0,35,0.00,,,0.00,VWS V14.01,2013-11-05 17:01:00,
2013-11-05 12:06:00,55.3,27.4,30.37,NW,311,0.0,0.0,34,0.00,,,0.00,VWS V14.01,2013-11-05 17:06:00,
2013-11-05 12:11:00,55.6,27.7,30.37,NW,311,0.0,0.0,34,0.00,,,0.00,VWS V14.01,2013-11-05 17:11:00,
2013-11-05 12:16:00,56.2,26.8,30.36,West,260,1.0,0.0,32,0.00,,,0.00,VWS V14.01,2013-11-05 17:16:00,
2013-11-05 12:21:00,56.7,28.7,30.36,West,273,0.0,0.0,34,0.00,,,0.00,VWS V14.01,2013-11-05 17:21:00,
2013-11-05 12:26:00,57.0,28.2,30.36,West,267,2.0,0.0,33,0.00,,,0.00,VWS V14.01,2013-11-05 17:26:00,
2013-11-05 12:33:00,57.3,28.5,30.35,WSW,242,4.0,0.0,33,0.00,,,0.00,VWS V14.01,2013-11-05 17:33:00,
2013-11-05 12:39:00,57.2,26.9,30.35,West,279,0.0,0.0,31,0.00,,,0.00,VWS V14.01,2013-11-05 17:39:00,
2013-11-05 12:44:00,57.8,28.2,30.34,West,279,3.0,0.0,32,0.00,,,0.00,VWS V14.01,2013-11-05 17:44:00,
2013-11-05 12:49:00,58.3,27.0,30.34,WSW,258,1.0,0.0,30,0.00,,,0.00,VWS V14.01,2013-11-05 17:49:00,
2013-11-05 12:54:00,58.7,28.2,30.34,West,262,0.0,0.0,31,0.00,,,0.00,VWS V14.01,2013-11-05 17:54:00,
2013-11-05 12:59:00,59.2,28.6,30.33,West,262,0.0,0.0,31,0.00,,,0.00,VWS V14.01,2013-11-05 17:59:00,
2013-11-05 13:04:00,59.0,26.8,30.33,North,355,3.0,0.0,29,0.00,,,0.00,VWS V14.01,2013-11-05 18:04:00,
2013-11-05 13:09:00,58.9,27.5,30.33,WSW,244,1.0,0.0,30,0.00,,,0.00,VWS V14.01,2013-11-05 18:09:00,
2013-11-05 13:14:00,59.2,28.6,30.33,NW,319,2.0,0.0,31,0.00,,,0.00,VWS V14.01,2013-11-05 18:14:00,
2013-11-05 13:19:00,59.2,28.6,30.33,NW,312,0.0,0.0,31,0.00,,,0.00,VWS V14.01,2013-11-05 18:19:00,
2013-11-05 13:24:00,59.2,27.8,30.33,NW,306,1.0,0.0,30,0.00,,,0.00,VWS V14.01,2013-11-05 18:24:00,
2013-11-05 13:29:00,59.0,29.2,30.33,NW,306,0.0,0.0,32,0.00,,,0.00,VWS V14.01,2013-11-05 18:29:00,
2013-11-05 13:34:00,58.9,28.3,30.33,NW,306,0.0,0.0,31,0.00,,,0.00,VWS V14.01,2013-11-05 18:34:00,
2013-11-05 13:39:00,59.0,30.0,30.33,NW,306,0.0,0.0,33,0.00,,,0.00,VWS V14.01,2013-11-05 18:39:00,
2013-11-05 13:44:00,59.2,27.0,30.32,NW,306,1.0,0.0,29,0.00,,,0.00,VWS V14.01,2013-11-05 18:44:00,
2013-11-05 13:49:00,59.3,27.9,30.32,NW,306,0.0,0.0,30,0.00,,,0.00,VWS V14.01,2013-11-05 18:49:00,
2013-11-05 13:54:00,59.5,29.6,30.32,NW,306,0.0,0.0,32,0.00,,,0.00,VWS V14.01,2013-11-05 18:54:00,
2013-11-05 14:00:00,59.5,28.1,30.31,West,269,0.0,0.0,30,0.00,,,0.00,VWS V14.01,2013-11-05 19:00:00,
2013-11-05 14:05:00,59.5,29.6,30.31,West,269,2.0,0.0,32,0.00,,,0.00,VWS V14.01,2013-11-05 19:05:00,
2013-11-05 14:10:00,59.5,28.9,30.31,West,269,0.0,0.0,31,0.00,,,0.00,VWS V14.01,2013-11-05 19:10:00,
2013-11-05 14:15:00,59.5,27.2,30.32,West,269,0.0,0.0,29,0.00,,,0.00,VWS V14.01,2013-11-05 19:15:00,
2013-11-05 14:20:00,59.5,27.2,30.32,West,269,0.0,0.0,29,0.00,,,0.00,VWS V14.01,2013-11-05 19:20:00,
2013-11-05 14:25:00,59.8,27.5,30.32,West,269,0.0,0.0,29,0.00,,,0.00,VWS V14.01,2013-11-05 19:25:00,
2013-11-05 14:30:00,60.2,30.2,30.32,West,269,0.0,0.0,32,0.00,,,0.00,VWS V14.01,2013-11-05 19:30:00,
2013-11-05 14:35:00,61.0,27.7,30.32,West,269,0.0,0.0,28,0.00,,,0.00,VWS V14.01,2013-11-05 19:35:00,
2013-11-05 14:40:00,61.3,26.1,30.32,West,259,0.0,0.0,26,0.00,,,0.00,VWS V14.01,2013-11-05 19:40:00,
2013-11-05 14:45:00,61.3,27.1,30.31,West,259,0.0,0.0,27,0.00,,,0.00,VWS V14.01,2013-11-05 19:45:00,
2013-11-05 14:50:00,61.8,28.4,30.31,West,259,0.0,0.0,28,0.00,,,0.00,VWS V14.01,2013-11-05 19:50:00,
2013-11-05 14:55:00,62.1,28.6,30.31,West,259,0.0,0.0,28,0.00,,,0.00,VWS V14.01,2013-11-05 19:55:00,
2013-11-05 15:01:00,62.3,28.8,30.30,West,259,0.0,0.0,28,0.00,,,0.00,VWS V14.01,2013-11-05 20:01:00,
2013-11-05 15:06:00,62.4,28.9,30.30,West,259,1.0,0.0,28,0.00,,,0.00,VWS V14.01,2013-11-05 20:06:00,
2013-11-05 15:11:00,62.6,28.2,30.30,West,259,0.0,0.0,27,0.00,,,0.00,VWS V14.01,2013-11-05 20:11:00,
2013-11-05 15:16:00,63.1,27.7,30.30,West,259,0.0,0.0,26,0.00,,,0.00,VWS V14.01,2013-11-05 20:16:00,
2013-11-05 15:21:00,63.5,27.1,30.30,WSW,252,0.0,0.0,25,0.00,,,0.00,VWS V14.01,2013-11-05 20:21:00,
2013-11-05 15:26:00,63.4,27.0,30.30,WSW,252,0.0,0.0,25,0.00,,,0.00,VWS V14.01,2013-11-05 20:26:00,
2013-11-05 15:31:00,63.1,27.7,30.30,WSW,252,0.0,0.0,26,0.00,,,0.00,VWS V14.01,2013-11-05 20:31:00,
2013-11-05 15:36:00,62.3,28.8,30.30,WSW,252,0.0,0.0,28,0.00,,,0.00,VWS V14.01,2013-11-05 20:36:00,
2013-11-05 15:41:00,62.3,27.9,30.30,WSW,252,0.0,0.0,27,0.00,,,0.00,VWS V14.01,2013-11-05 20:41:00,
2013-11-05 15:46:00,62.6,28.2,30.30,WSW,252,0.0,0.0,27,0.00,,,0.00,VWS V14.01,2013-11-05 20:46:00,
2013-11-05 15:51:00,63.1,26.7,30.30,WSW,252,0.0,0.0,25,0.00,,,0.00,VWS V14.01,2013-11-05 20:51:00,
2013-11-05 15:56:00,63.4,27.0,30.30,WSW,252,0.0,0.0,25,0.00,,,0.00,VWS V14.01,2013-11-05 20:56:00,
2013-11-05 16:01:00,63.4,27.0,30.30,WSW,252,1.0,0.0,25,0.00,,,0.00,VWS V14.01,2013-11-05 21:01:00,
2013-11-05 16:07:00,63.2,26.8,30.30,WSW,252,0.0,0.0,25,0.00,,,0.00,VWS V14.01,2013-11-05 21:07:00,
2013-11-05 16:12:00,62.9,28.4,30.30,WSW,252,0.0,0.0,27,0.00,,,0.00,VWS V14.01,2013-11-05 21:12:00,
2013-11-05 16:17:00,63.1,26.7,30.29,WSW,252,0.0,0.0,25,0.00,,,0.00,VWS V14.01,2013-11-05 21:17:00,
2013-11-05 16:22:00,63.2,27.8,30.29,WSW,252,0.0,0.0,26,0.00,,,0.00,VWS V14.01,2013-11-05 21:22:00,
2013-11-05 16:27:00,63.4,29.8,30.29,WSW,252,0.0,0.0,28,0.00,,,0.00,VWS V14.01,2013-11-05 21:27:00,
2013-11-05 16:32:00,62.9,27.5,30.29,WSW,252,0.0,0.0,26,0.00,,,0.00,VWS V14.01,2013-11-05 21:32:00,
2013-11-05 16:37:00,62.4,28.0,30.29,WSW,252,0.0,0.0,27,0.00,,,0.00,VWS V14.01,2013-11-05 21:37:00,
2013-11-05 16:42:00,62.0,26.8,30.29,WSW,252,0.0,0.0,26,0.00,,,0.00,VWS V14.01,2013-11-05 21:42:00,
2013-11-05 16:47:00,61.2,28.7,30.30,WSW,252,0.0,0.0,29,0.00,,,0.00,VWS V14.01,2013-11-05 21:47:00,
2013-11-05 16:52:00,60.5,29.7,30.30,WSW,252,0.0,0.0,31,0.00,,,0.00,VWS V14.01,2013-11-05 21:52:00,
2013-11-05 16:57:00,59.9,29.2,30.30,WSW,252,0.0,0.0,31,0.00,,,0.00,VWS V14.01,2013-11-05 21:57:00,
2013-11-05 17:03:00,59.5,28.9,30.30,WSW,252,0.0,0.0,31,0.00,,,0.00,VWS V14.01,2013-11-05 22:03:00,
2013-11-05 17:08:00,59.3,30.2,30.30,WSW,252,0.0,0.0,33,0.00,,,0.00,VWS V14.01,2013-11-05 22:08:00,
2013-11-05 17:13:00,59.0,30.0,30.30,WSW,252,0.0,0.0,33,0.00,,,0.00,VWS V14.01,2013-11-05 22:13:00,
2013-11-05 17:18:00,58.9,32.7,30.30,WSW,252,0.0,0.0,37,0.00,,,0.00,VWS V14.01,2013-11-05 22:18:00,
2013-11-05 17:23:00,58.6,34.4,30.30,WSW,252,0.0,0.0,40,0.00,,,0.00,VWS V14.01,2013-11-05 22:23:00,
2013-11-05 17:28:00,57.5,30.8,30.30,WSW,252,0.0,0.0,36,0.00,,,0.00,VWS V14.01,2013-11-05 22:28:00,
2013-11-05 17:33:00,56.6,29.3,30.31,WSW,252,0.0,0.0,35,0.00,,,0.00,VWS V14.01,2013-11-05 22:33:00,
2013-11-05 17:38:00,55.9,30.0,30.31,WSW,252,0.0,0.0,37,0.00,,,0.00,VWS V14.01,2013-11-05 22:38:00,
2013-11-05 17:43:00,55.3,29.5,30.31,WSW,252,0.0,0.0,37,0.00,,,0.00,VWS V14.01,2013-11-05 22:43:00,
2013-11-05 17:48:00,54.8,31.0,30.31,WSW,252,0.0,0.0,40,0.00,,,0.00,VWS V14.01,2013-11-05 22:48:00,
2013-11-05 17:53:00,54.1,30.3,30.31,WSW,252,0.0,0.0,40,0.00,,,0.00,VWS V14.01,2013-11-05 22:53:00,
2013-11-05 17:58:00,53.3,30.8,30.31,WSW,252,0.0,0.0,42,0.00,,,0.00,VWS V14.01,2013-11-05 22:58:00,
2013-11-05 18:03:00,52.8,30.4,30.32,WSW,252,0.0,0.0,42,0.00,,,0.00,VWS V14.01,2013-11-05 23:03:00,
2013-11-05 18:08:00,52.3,30.5,30.32,WSW,252,0.0,0.0,43,0.00,,,0.00,VWS V14.01,2013-11-05 23:08:00,
2013-11-05 18:13:00,51.9,31.2,30.32,WSW,252,0.0,0.0,45,0.00,,,0.00,VWS V14.01,2013-11-05 23:13:00,
2013-11-05 18:19:00,51.3,30.7,30.32,WSW,252,1.0,0.0,45,0.00,,,0.00,VWS V14.01,2013-11-05 23:19:00,
2013-11-05 18:24:00,51.0,30.4,30.32,WSW,252,0.0,0.0,45,0.00,,,0.00,VWS V14.01,2013-11-05 23:24:00,
2013-11-05 18:29:00,50.5,31.0,30.33,WSW,252,0.0,0.0,47,0.00,,,0.00,VWS V14.01,2013-11-05 23:29:00,
2013-11-05 18:34:00,50.2,30.8,30.33,WSW,252,0.0,0.0,47,0.00,,,0.00,VWS V14.01,2013-11-05 23:34:00,
2013-11-05 18:39:00,49.9,31.0,30.33,WSW,252,0.0,0.0,48,0.00,,,0.00,VWS V14.01,2013-11-05 23:39:00,
2013-11-05 18:44:00,49.8,31.4,30.33,WSW,252,0.0,0.0,49,0.00,,,0.00,VWS V14.01,2013-11-05 23:44:00,
2013-11-05 18:49:00,49.5,31.6,30.33,WSW,252,0.0,0.0,50,0.00,,,0.00,VWS V14.01,2013-11-05 23:49:00,
2013-11-05 18:54:00,49.4,31.6,30.33,WSW,252,0.0,0.0,50,0.00,,,0.00,VWS V14.01,2013-11-05 23:54:00,
2013-11-05 18:59:00,49.1,31.3,30.33,WSW,252,0.0,0.0,50,0.00,,,0.00,VWS V14.01,2013-11-05 23:59:00,
2013-11-05 19:04:00,48.9,31.1,30.33,WSW,252,0.0,0.0,50,0.00,,,0.00,VWS V14.01,2013-11-06 00:04:00,
2013-11-05 19:09:00,48.8,31.0,30.33,WSW,252,0.0,0.0,50,0.00,,,0.00,VWS V14.01,2013-11-06 00:09:00,
2013-11-05 19:14:00,48.6,32.3,30.33,WSW,252,0.0,0.0,53,0.00,,,0.00,VWS V14.01,2013-11-06 00:14:00,
2013-11-05 19:19:00,48.5,32.2,30.33,WSW,252,0.0,0.0,53,0.00,,,0.00,VWS V14.01,2013-11-06 00:19:00,
2013-11-05 19:24:00,48.3,32.0,30.33,WSW,252,0.0,0.0,53,0.00,,,0.00,VWS V14.01,2013-11-06 00:24:00,
2013-11-05 19:29:00,48.3,33.3,30.33,WSW,252,0.0,0.0,56,0.00,,,0.00,VWS V14.01,2013-11-06 00:29:00,
2013-11-05 19:34:00,48.2,33.3,30.33,WSW,252,0.0,0.0,56,0.00,,,0.00,VWS V14.01,2013-11-06 00:34:00,
2013-11-05 19:39:00,48.2,33.7,30.33,WSW,252,0.0,0.0,57,0.00,,,0.00,VWS V14.01,2013-11-06 00:39:00,
2013-11-05 19:45:00,48.3,34.7,30.34,WSW,252,0.0,0.0,59,0.00,,,0.00,VWS V14.01,2013-11-06 00:45:00,
2013-11-05 19:50:00,48.8,31.5,30.34,West,273,0.0,0.0,51,0.00,,,0.00,VWS V14.01,2013-11-06 00:50:00,
2013-11-05 19:55:00,49.6,32.2,30.34,West,273,0.0,0.0,51,0.00,,,0.00,VWS V14.01,2013-11-06 00:55:00,
2013-11-05 20:00:00,50.2,31.8,30.33,West,273,0.0,0.0,49,0.00,,,0.00,VWS V14.01,2013-11-06 01:00:00,
2013-11-05 20:05:00,50.7,31.7,30.33,West,273,0.0,0.0,48,0.00,,,0.00,VWS V14.01,2013-11-06 01:05:00,
2013-11-05 20:10:00,51.0,30.4,30.33,West,274,0.0,0.0,45,0.00,,,0.00,VWS V14.01,2013-11-06 01:10:00,
2013-11-05 20:15:00,51.0,29.9,30.33,West,273,0.0,0.0,44,0.00,,,0.00,VWS V14.01,2013-11-06 01:15:00,
2013-11-05 20:20:00,50.8,30.8,30.33,West,273,0.0,0.0,46,0.00,,,0.00,VWS V14.01,2013-11-06 01:20:00,
2013-11-05 20:25:00,50.8,30.2,30.33,West,273,0.0,0.0,45,0.00,,,0.00,VWS V14.01,2013-11-06 01:25:00,
2013-11-05 20:30:00,50.5,28.9,30.33,West,273,0.0,0.0,43,0.00,,,0.00,VWS V14.01,2013-11-06 01:30:00,
2013-11-05 20:35:00,50.4,29.9,30.33,NNE,19,0.0,0.0,45,0.00,,,0.00,VWS V14.01,2013-11-06 01:35:00,
2013-11-05 20:40:00,50.4,29.3,30.33,NNE,19,0.0,0.0,44,0.00,,,0.00,VWS V14.01,2013-11-06 01:40:00,
2013-11-05 20:45:00,50.2,28.0,30.34,NNE,19,0.0,0.0,42,0.00,,,0.00,VWS V14.01,2013-11-06 01:45:00,
2013-11-05 20:50:00,50.2,29.7,30.34,NNW,337,0.0,0.0,45,0.00,,,0.00,VWS V14.01,2013-11-06 01:50:00,
2013-11-05 20:55:00,50.2,29.1,30.34,NNW,337,2.0,0.0,44,0.00,,,0.00,VWS V14.01,2013-11-06 01:55:00,
2013-11-05 21:01:00,50.5,29.4,30.34,West,279,0.0,0.0,44,0.00,,,0.00,VWS V14.01,2013-11-06 02:01:00,
2013-11-05 21:06:00,50.4,29.3,30.34,West,279,0.0,0.0,44,0.00,,,0.00,VWS V14.01,2013-11-06 02:06:00,
2013-11-05 21:11:00,50.1,30.1,30.34,West,279,0.0,0.0,46,0.00,,,0.00,VWS V14.01,2013-11-06 02:11:00,
2013-11-05 21:16:00,49.8,28.8,30.33,West,279,0.0,0.0,44,0.00,,,0.00,VWS V14.01,2013-11-06 02:16:00,
2013-11-05 21:21:00,49.8,28.8,30.33,West,279,0.0,0.0,44,0.00,,,0.00,VWS V14.01,2013-11-06 02:21:00,
2013-11-05 21:26:00,49.8,29.9,30.33,West,279,0.0,0.0,46,0.00,,,0.00,VWS V14.01,2013-11-06 02:26:00,
2013-11-05 21:31:00,49.6,29.7,30.33,West,279,0.0,0.0,46,0.00,,,0.00,VWS V14.01,2013-11-06 02:31:00,
2013-11-05 21:36:00,49.4,29.0,30.33,West,279,0.0,0.0,45,0.00,,,0.00,VWS V14.01,2013-11-06 02:36:00,
2013-11-05 21:41:00,49.4,29.5,30.33,East,97,0.0,0.0,46,0.00,,,0.00,VWS V14.01,2013-11-06 02:41:00,
2013-11-05 21:46:00,49.2,28.8,30.33,East,97,0.0,0.0,45,0.00,,,0.00,VWS V14.01,2013-11-06 02:46:00,
2013-11-05 21:51:00,48.9,30.6,30.33,East,97,2.0,0.0,49,0.00,,,0.00,VWS V14.01,2013-11-06 02:51:00,
2013-11-05 21:56:00,48.6,30.3,30.33,East,97,0.0,0.0,49,0.00,,,0.00,VWS V14.01,2013-11-06 02:56:00,
2013-11-05 22:01:00,48.5,30.7,30.33,East,97,0.0,0.0,50,0.00,,,0.00,VWS V14.01,2013-11-06 03:01:00,
2013-11-05 22:07:00,48.3,29.5,30.33,East,97,0.0,0.0,48,0.00,,,0.00,VWS V14.01,2013-11-06 03:07:00,
2013-11-05 22:12:00,48.2,29.5,30.33,East,97,0.0,0.0,48,0.00,,,0.00,VWS V14.01,2013-11-06 03:12:00,
2013-11-05 22:17:00,48.0,30.3,30.32,East,97,0.0,0.0,50,0.00,,,0.00,VWS V14.01,2013-11-06 03:17:00,
2013-11-05 22:22:00,47.9,30.2,30.32,East,97,0.0,0.0,50,0.00,,,0.00,VWS V14.01,2013-11-06 03:22:00,
2013-11-05 22:27:00,47.6,29.9,30.32,East,97,0.0,0.0,50,0.00,,,0.00,VWS V14.01,2013-11-06 03:27:00,
2013-11-05 22:32:00,47.4,30.7,30.32,East,97,0.0,0.0,52,0.00,,,0.00,VWS V14.01,2013-11-06 03:32:00,
2013-11-05 22:37:00,47.1,30.4,30.32,East,97,0.0,0.0,52,0.00,,,0.00,VWS V14.01,2013-11-06 03:37:00,
2013-11-05 22:42:00,47.0,30.3,30.32,East,97,0.0,0.0,52,0.00,,,0.00,VWS V14.01,2013-11-06 03:42:00,
2013-11-05 22:47:00,46.8,30.1,30.32,East,97,0.0,0.0,52,0.00,,,0.00,VWS V14.01,2013-11-06 03:47:00,
2013-11-05 22:52:00,46.5,31.2,30.32,East,97,0.0,0.0,55,0.00,,,0.00,VWS V14.01,2013-11-06 03:52:00,
2013-11-05 22:57:00,46.1,31.7,30.32,East,97,0.0,0.0,57,0.00,,,0.00,VWS V14.01,2013-11-06 03:57:00,
2013-11-05 23:02:00,45.7,32.2,30.32,East,97,0.0,0.0,59,0.00,,,0.00,VWS V14.01,2013-11-06 04:02:00,
2013-11-05 23:08:00,45.5,32.8,30.32,East,97,0.0,0.0,61,0.00,,,0.00,VWS V14.01,2013-11-06 04:08:00,
2013-11-05 23:13:00,45.2,33.4,30.32,East,97,0.0,0.0,63,0.00,,,0.00,VWS V14.01,2013-11-06 04:13:00,
2013-11-05 23:18:00,44.9,32.7,30.30,East,97,0.0,0.0,62,0.00,,,0.00,VWS V14.01,2013-11-06 04:18:00,
2013-11-05 23:23:00,44.5,32.7,30.30,East,97,0.0,0.0,63,0.00,,,0.00,VWS V14.01,2013-11-06 04:23:00,
2013-11-05 23:28:00,44.3,32.1,30.30,East,97,0.0,0.0,62,0.00,,,0.00,VWS V14.01,2013-11-06 04:28:00,
2013-11-05 23:33:00,44.1,32.3,30.31,East,97,0.0,0.0,63,0.00,,,0.00,VWS V14.01,2013-11-06 04:33:00,
2013-11-05 23:38:00,43.8,31.2,30.31,East,97,0.0,0.0,61,0.00,,,0.00,VWS V14.01,2013-11-06 04:38:00,
2013-11-05 23:43:00,43.3,31.2,30.31,East,97,0.0,0.0,62,0.00,,,0.00,VWS V14.01,2013-11-06 04:43:00,
2013-11-05 23:48:00,43.2,31.1,30.31,East,97,0.0,0.0,62,0.00,,,0.00,VWS V14.01,2013-11-06 04:48:00,
2013-11-05 23:53:00,42.9,31.2,30.31,East,97,0.0,0.0,63,0.00,,,0.00,VWS V14.01,2013-11-06 04:53:00,
2013-11-05 23:58:00,42.8,31.1,30.31,East,97,0.0,0.0,63,0.00,,,0.00,VWS V14.01,2013-11-06 04:58:00,